sensor_id;sensor_type;location;lat;lon;timestamp;P1;durP1;ratioP1;P2;durP2;ratioP2
67828;SDS011;54626;45.436;10.942;2022-10-29T00:02:19;2.75;;;1.50;;
67828;SDS011;54626;45.436;10.942;2022-10-29T00:04:47;6.85;;;2.30;;
67828;SDS011;54626;45.436;10.942;2022-10-29T00:07:13;7.18;;;2.70;;
67828;SDS011;54626;45.436;10.942;2022-10-29T00:09:40;5.38;;;2.17;;
67828;SDS011;54626;45.436;10.942;2022-10-29T00:12:07;7.18;;;2.03;;
67828;SDS011;54626;45.436;10.942;2022-10-29T00:14:33;4.47;;;2.25;;
67828;SDS011;54626;45.436;10.942;2022-10-29T00:17:00;5.25;;;2.13;;
67828;SDS011;54626;45.436;10.942;2022-10-29T00:19:26;4.40;;;1.55;;
67828;SDS011;54626;45.436;10.942;2022-10-29T00:21:54;8.15;;;2.70;;
67828;SDS011;54626;45.436;10.942;2022-10-29T00:24:22;4.18;;;1.92;;
67828;SDS011;54626;45.436;10.942;2022-10-29T00:26:48;4.45;;;2.67;;
67828;SDS011;54626;45.436;10.942;2022-10-29T00:29:15;5.60;;;1.80;;
67828;SDS011;54626;45.436;10.942;2022-10-29T00:31:42;7.70;;;2.85;;
67828;SDS011;54626;45.436;10.942;2022-10-29T00:34:09;7.88;;;2.28;;
67828;SDS011;54626;45.436;10.942;2022-10-29T00:36:36;6.53;;;2.13;;
67828;SDS011;54626;45.436;10.942;2022-10-29T00:39:02;7.20;;;1.20;;
67828;SDS011;54626;45.436;10.942;2022-10-29T00:41:29;5.07;;;2.40;;
67828;SDS011;54626;45.436;10.942;2022-10-29T00:47:08;3.33;;;1.83;;
67828;SDS011;54626;45.436;10.942;2022-10-29T00:49:39;4.57;;;2.30;;
67828;SDS011;54626;45.436;10.942;2022-10-29T00:52:08;3.97;;;2.15;;
67828;SDS011;54626;45.436;10.942;2022-10-29T00:54:35;5.38;;;2.50;;
67828;SDS011;54626;45.436;10.942;2022-10-29T00:57:07;7.78;;;2.22;;
67828;SDS011;54626;45.436;10.942;2022-10-29T00:59:37;3.97;;;1.70;;
67828;SDS011;54626;45.436;10.942;2022-10-29T01:02:05;3.72;;;2.38;;
67828;SDS011;54626;45.436;10.942;2022-10-29T01:04:33;3.55;;;1.75;;
67828;SDS011;54626;45.436;10.942;2022-10-29T01:07:00;4.28;;;2.03;;
67828;SDS011;54626;45.436;10.942;2022-10-29T01:09:27;4.63;;;1.38;;
67828;SDS011;54626;45.436;10.942;2022-10-29T01:14:59;5.65;;;2.70;;
67828;SDS011;54626;45.436;10.942;2022-10-29T01:28:32;4.03;;;1.92;;
67828;SDS011;54626;45.436;10.942;2022-10-29T01:31:17;4.28;;;1.65;;
67828;SDS011;54626;45.436;10.942;2022-10-29T01:42:12;3.50;;;2.08;;
67828;SDS011;54626;45.436;10.942;2022-10-29T01:44:56;3.08;;;1.25;;
67828;SDS011;54626;45.436;10.942;2022-10-29T01:47:46;3.80;;;2.05;;
67828;SDS011;54626;45.436;10.942;2022-10-29T01:50:20;5.07;;;1.45;;
67828;SDS011;54626;45.436;10.942;2022-10-29T01:52:50;3.47;;;1.67;;
67828;SDS011;54626;45.436;10.942;2022-10-29T01:55:18;7.20;;;2.08;;
67828;SDS011;54626;45.436;10.942;2022-10-29T01:57:47;3.13;;;1.85;;
67828;SDS011;54626;45.436;10.942;2022-10-29T02:00:14;10.25;;;2.47;;
67828;SDS011;54626;45.436;10.942;2022-10-29T02:05:49;13.70;;;2.70;;
67828;SDS011;54626;45.436;10.942;2022-10-29T02:12:05;4.95;;;2.42;;
67828;SDS011;54626;45.436;10.942;2022-10-29T02:14:34;2.95;;;1.60;;
67828;SDS011;54626;45.436;10.942;2022-10-29T02:17:06;7.20;;;2.90;;
67828;SDS011;54626;45.436;10.942;2022-10-29T02:19:34;3.00;;;1.75;;
67828;SDS011;54626;45.436;10.942;2022-10-29T02:22:03;5.18;;;2.25;;
67828;SDS011;54626;45.436;10.942;2022-10-29T02:24:33;8.15;;;2.25;;
67828;SDS011;54626;45.436;10.942;2022-10-29T02:26:59;4.22;;;2.00;;
67828;SDS011;54626;45.436;10.942;2022-10-29T02:29:26;3.90;;;1.85;;
67828;SDS011;54626;45.436;10.942;2022-10-29T02:31:52;3.70;;;1.77;;
67828;SDS011;54626;45.436;10.942;2022-10-29T02:34:18;3.00;;;2.03;;
67828;SDS011;54626;45.436;10.942;2022-10-29T02:36:45;7.22;;;2.35;;
67828;SDS011;54626;45.436;10.942;2022-10-29T02:39:12;6.75;;;1.92;;
67828;SDS011;54626;45.436;10.942;2022-10-29T02:41:39;4.78;;;2.10;;
67828;SDS011;54626;45.436;10.942;2022-10-29T02:44:06;4.32;;;1.95;;
67828;SDS011;54626;45.436;10.942;2022-10-29T02:46:32;5.40;;;2.60;;
67828;SDS011;54626;45.436;10.942;2022-10-29T02:49:05;4.68;;;2.08;;
67828;SDS011;54626;45.436;10.942;2022-10-29T02:51:32;5.72;;;2.30;;
67828;SDS011;54626;45.436;10.942;2022-10-29T02:53:59;7.97;;;2.40;;
67828;SDS011;54626;45.436;10.942;2022-10-29T02:56:25;5.75;;;2.58;;
67828;SDS011;54626;45.436;10.942;2022-10-29T02:58:52;4.53;;;1.65;;
67828;SDS011;54626;45.436;10.942;2022-10-29T03:01:20;8.93;;;2.45;;
67828;SDS011;54626;45.436;10.942;2022-10-29T03:03:47;3.03;;;1.45;;
67828;SDS011;54626;45.436;10.942;2022-10-29T03:06:13;5.68;;;1.83;;
67828;SDS011;54626;45.436;10.942;2022-10-29T03:08:41;5.60;;;2.28;;
67828;SDS011;54626;45.436;10.942;2022-10-29T03:11:11;5.85;;;1.98;;
67828;SDS011;54626;45.436;10.942;2022-10-29T03:13:41;6.60;;;1.90;;
67828;SDS011;54626;45.436;10.942;2022-10-29T03:16:08;6.28;;;2.38;;
67828;SDS011;54626;45.436;10.942;2022-10-29T03:18:37;3.63;;;2.10;;
67828;SDS011;54626;45.436;10.942;2022-10-29T03:21:06;1.45;;;0.93;;
67828;SDS011;54626;45.436;10.942;2022-10-29T03:23:33;5.07;;;1.75;;
67828;SDS011;54626;45.436;10.942;2022-10-29T03:26:00;5.18;;;1.63;;
67828;SDS011;54626;45.436;10.942;2022-10-29T03:28:27;3.85;;;2.17;;
67828;SDS011;54626;45.436;10.942;2022-10-29T03:30:58;2.25;;;1.60;;
67828;SDS011;54626;45.436;10.942;2022-10-29T03:33:24;6.22;;;2.90;;
67828;SDS011;54626;45.436;10.942;2022-10-29T03:35:57;5.03;;;3.28;;
67828;SDS011;54626;45.436;10.942;2022-10-29T03:38:25;4.38;;;2.85;;
67828;SDS011;54626;45.436;10.942;2022-10-29T03:40:53;5.50;;;2.22;;
67828;SDS011;54626;45.436;10.942;2022-10-29T03:43:20;5.35;;;2.17;;
67828;SDS011;54626;45.436;10.942;2022-10-29T03:45:50;4.80;;;2.28;;
67828;SDS011;54626;45.436;10.942;2022-10-29T03:48:20;6.30;;;1.90;;
67828;SDS011;54626;45.436;10.942;2022-10-29T03:50:54;4.35;;;2.17;;
67828;SDS011;54626;45.436;10.942;2022-10-29T03:53:25;3.38;;;2.00;;
67828;SDS011;54626;45.436;10.942;2022-10-29T03:55:53;4.57;;;2.00;;
67828;SDS011;54626;45.436;10.942;2022-10-29T03:58:24;3.38;;;1.02;;
67828;SDS011;54626;45.436;10.942;2022-10-29T04:03:25;3.95;;;2.13;;
67828;SDS011;54626;45.436;10.942;2022-10-29T04:05:53;4.47;;;2.40;;
67828;SDS011;54626;45.436;10.942;2022-10-29T04:08:21;2.70;;;1.83;;
67828;SDS011;54626;45.436;10.942;2022-10-29T04:10:49;4.50;;;2.30;;
67828;SDS011;54626;45.436;10.942;2022-10-29T04:13:16;3.15;;;1.30;;
67828;SDS011;54626;45.436;10.942;2022-10-29T04:15:45;3.72;;;1.60;;
67828;SDS011;54626;45.436;10.942;2022-10-29T04:18:12;4.28;;;2.20;;
67828;SDS011;54626;45.436;10.942;2022-10-29T04:20:40;1.42;;;0.88;;
67828;SDS011;54626;45.436;10.942;2022-10-29T04:23:27;2.88;;;1.10;;
67828;SDS011;54626;45.436;10.942;2022-10-29T04:26:14;5.70;;;2.85;;
67828;SDS011;54626;45.436;10.942;2022-10-29T04:29:03;3.78;;;1.80;;
67828;SDS011;54626;45.436;10.942;2022-10-29T04:31:29;3.22;;;1.02;;
67828;SDS011;54626;45.436;10.942;2022-10-29T04:33:56;8.35;;;2.45;;
67828;SDS011;54626;45.436;10.942;2022-10-29T04:36:22;5.88;;;1.77;;
67828;SDS011;54626;45.436;10.942;2022-10-29T04:38:49;10.10;;;2.45;;
67828;SDS011;54626;45.436;10.942;2022-10-29T04:41:15;3.67;;;1.60;;
67828;SDS011;54626;45.436;10.942;2022-10-29T04:43:46;5.15;;;2.03;;
67828;SDS011;54626;45.436;10.942;2022-10-29T04:46:13;2.97;;;1.75;;
67828;SDS011;54626;45.436;10.942;2022-10-29T04:48:39;5.50;;;2.00;;
67828;SDS011;54626;45.436;10.942;2022-10-29T04:51:06;2.10;;;1.10;;
67828;SDS011;54626;45.436;10.942;2022-10-29T04:53:32;2.42;;;1.17;;
67828;SDS011;54626;45.436;10.942;2022-10-29T04:55:59;7.00;;;2.42;;
67828;SDS011;54626;45.436;10.942;2022-10-29T04:58:33;3.53;;;2.08;;
67828;SDS011;54626;45.436;10.942;2022-10-29T05:01:00;5.35;;;1.70;;
67828;SDS011;54626;45.436;10.942;2022-10-29T05:03:32;4.63;;;2.10;;
67828;SDS011;54626;45.436;10.942;2022-10-29T05:06:03;4.35;;;1.73;;
67828;SDS011;54626;45.436;10.942;2022-10-29T05:08:30;5.15;;;2.10;;
67828;SDS011;54626;45.436;10.942;2022-10-29T05:11:00;5.05;;;2.25;;
67828;SDS011;54626;45.436;10.942;2022-10-29T05:13:34;2.53;;;1.25;;
67828;SDS011;54626;45.436;10.942;2022-10-29T05:16:01;4.10;;;1.77;;
67828;SDS011;54626;45.436;10.942;2022-10-29T05:18:27;8.55;;;2.35;;
67828;SDS011;54626;45.436;10.942;2022-10-29T05:20:58;5.90;;;2.38;;
67828;SDS011;54626;45.436;10.942;2022-10-29T05:25:54;2.90;;;1.58;;
67828;SDS011;54626;45.436;10.942;2022-10-29T05:28:21;9.18;;;2.45;;
67828;SDS011;54626;45.436;10.942;2022-10-29T05:30:53;3.08;;;1.92;;
67828;SDS011;54626;45.436;10.942;2022-10-29T05:33:20;2.90;;;1.40;;
67828;SDS011;54626;45.436;10.942;2022-10-29T05:35:48;4.45;;;2.05;;
67828;SDS011;54626;45.436;10.942;2022-10-29T05:38:18;5.57;;;2.10;;
67828;SDS011;54626;45.436;10.942;2022-10-29T05:40:44;4.78;;;1.92;;
67828;SDS011;54626;45.436;10.942;2022-10-29T05:43:13;6.93;;;2.33;;
67828;SDS011;54626;45.436;10.942;2022-10-29T05:45:41;3.45;;;1.52;;
67828;SDS011;54626;45.436;10.942;2022-10-29T05:48:08;2.92;;;1.35;;
67828;SDS011;54626;45.436;10.942;2022-10-29T05:50:41;3.03;;;1.20;;
67828;SDS011;54626;45.436;10.942;2022-10-29T05:53:09;7.07;;;2.83;;
67828;SDS011;54626;45.436;10.942;2022-10-29T05:55:40;3.63;;;1.48;;
67828;SDS011;54626;45.436;10.942;2022-10-29T05:58:11;5.05;;;2.63;;
67828;SDS011;54626;45.436;10.942;2022-10-29T06:00:42;6.72;;;1.83;;
67828;SDS011;54626;45.436;10.942;2022-10-29T06:03:11;4.20;;;2.00;;
67828;SDS011;54626;45.436;10.942;2022-10-29T06:05:39;3.33;;;1.98;;
67828;SDS011;54626;45.436;10.942;2022-10-29T06:08:06;2.10;;;1.52;;
67828;SDS011;54626;45.436;10.942;2022-10-29T06:10:33;7.50;;;2.10;;
67828;SDS011;54626;45.436;10.942;2022-10-29T06:13:00;12.73;;;2.78;;
67828;SDS011;54626;45.436;10.942;2022-10-29T06:15:26;3.85;;;1.67;;
67828;SDS011;54626;45.436;10.942;2022-10-29T06:17:53;8.45;;;1.95;;
67828;SDS011;54626;45.436;10.942;2022-10-29T06:20:20;3.17;;;1.45;;
67828;SDS011;54626;45.436;10.942;2022-10-29T06:22:56;3.97;;;1.83;;
67828;SDS011;54626;45.436;10.942;2022-10-29T06:25:24;8.20;;;2.10;;
67828;SDS011;54626;45.436;10.942;2022-10-29T06:28:01;5.10;;;2.25;;
67828;SDS011;54626;45.436;10.942;2022-10-29T06:30:30;2.35;;;1.05;;
67828;SDS011;54626;45.436;10.942;2022-10-29T06:33:00;3.90;;;1.80;;
67828;SDS011;54626;45.436;10.942;2022-10-29T06:35:28;2.88;;;1.67;;
67828;SDS011;54626;45.436;10.942;2022-10-29T06:37:55;4.80;;;2.08;;
67828;SDS011;54626;45.436;10.942;2022-10-29T06:40:22;6.38;;;1.67;;
67828;SDS011;54626;45.436;10.942;2022-10-29T06:42:48;4.63;;;2.20;;
67828;SDS011;54626;45.436;10.942;2022-10-29T06:45:15;4.78;;;1.73;;
67828;SDS011;54626;45.436;10.942;2022-10-29T06:47:43;2.50;;;1.17;;
67828;SDS011;54626;45.436;10.942;2022-10-29T06:50:11;7.93;;;1.52;;
67828;SDS011;54626;45.436;10.942;2022-10-29T06:52:38;3.00;;;1.63;;
67828;SDS011;54626;45.436;10.942;2022-10-29T06:55:05;3.03;;;1.60;;
67828;SDS011;54626;45.436;10.942;2022-10-29T06:57:32;5.22;;;1.55;;
67828;SDS011;54626;45.436;10.942;2022-10-29T06:59:59;7.97;;;2.35;;
67828;SDS011;54626;45.436;10.942;2022-10-29T07:02:33;3.03;;;1.60;;
67828;SDS011;54626;45.436;10.942;2022-10-29T07:05:00;5.72;;;2.40;;
67828;SDS011;54626;45.436;10.942;2022-10-29T07:07:27;6.75;;;2.25;;
67828;SDS011;54626;45.436;10.942;2022-10-29T07:09:54;5.57;;;2.17;;
67828;SDS011;54626;45.436;10.942;2022-10-29T07:12:20;9.40;;;2.60;;
67828;SDS011;54626;45.436;10.942;2022-10-29T07:14:47;5.85;;;2.53;;
67828;SDS011;54626;45.436;10.942;2022-10-29T07:17:13;6.47;;;2.38;;
67828;SDS011;54626;45.436;10.942;2022-10-29T07:19:42;5.28;;;2.25;;
67828;SDS011;54626;45.436;10.942;2022-10-29T07:22:08;7.32;;;2.50;;
67828;SDS011;54626;45.436;10.942;2022-10-29T07:24:35;4.72;;;2.40;;
67828;SDS011;54626;45.436;10.942;2022-10-29T07:27:01;5.72;;;2.58;;
67828;SDS011;54626;45.436;10.942;2022-10-29T07:29:29;6.32;;;2.65;;
67828;SDS011;54626;45.436;10.942;2022-10-29T07:31:55;7.70;;;3.03;;
67828;SDS011;54626;45.436;10.942;2022-10-29T07:34:21;5.82;;;2.78;;
67828;SDS011;54626;45.436;10.942;2022-10-29T07:36:48;6.90;;;3.15;;
67828;SDS011;54626;45.436;10.942;2022-10-29T07:39:14;10.77;;;3.13;;
67828;SDS011;54626;45.436;10.942;2022-10-29T07:41:41;7.95;;;3.22;;
67828;SDS011;54626;45.436;10.942;2022-10-29T07:44:08;5.00;;;1.98;;
67828;SDS011;54626;45.436;10.942;2022-10-29T07:46:34;11.82;;;3.72;;
67828;SDS011;54626;45.436;10.942;2022-10-29T07:49:01;8.50;;;3.78;;
67828;SDS011;54626;45.436;10.942;2022-10-29T07:51:27;12.73;;;4.63;;
67828;SDS011;54626;45.436;10.942;2022-10-29T07:53:54;11.75;;;3.70;;
67828;SDS011;54626;45.436;10.942;2022-10-29T07:56:23;10.30;;;3.10;;
67828;SDS011;54626;45.436;10.942;2022-10-29T07:58:51;7.90;;;3.83;;
67828;SDS011;54626;45.436;10.942;2022-10-29T08:01:17;7.93;;;3.38;;
67828;SDS011;54626;45.436;10.942;2022-10-29T08:03:44;9.43;;;3.67;;
67828;SDS011;54626;45.436;10.942;2022-10-29T08:06:11;8.73;;;4.22;;
67828;SDS011;54626;45.436;10.942;2022-10-29T08:08:37;10.85;;;4.18;;
67828;SDS011;54626;45.436;10.942;2022-10-29T08:11:04;15.70;;;4.22;;
67828;SDS011;54626;45.436;10.942;2022-10-29T08:13:32;8.02;;;3.05;;
67828;SDS011;54626;45.436;10.942;2022-10-29T08:15:59;6.35;;;2.65;;
67828;SDS011;54626;45.436;10.942;2022-10-29T08:18:25;10.43;;;4.00;;
67828;SDS011;54626;45.436;10.942;2022-10-29T08:20:52;7.82;;;3.25;;
67828;SDS011;54626;45.436;10.942;2022-10-29T08:23:19;10.15;;;3.78;;
67828;SDS011;54626;45.436;10.942;2022-10-29T08:25:49;10.65;;;3.95;;
67828;SDS011;54626;45.436;10.942;2022-10-29T08:28:15;7.35;;;3.55;;
67828;SDS011;54626;45.436;10.942;2022-10-29T08:30:42;6.25;;;2.50;;
67828;SDS011;54626;45.436;10.942;2022-10-29T08:33:14;6.35;;;3.05;;
67828;SDS011;54626;45.436;10.942;2022-10-29T08:35:40;9.60;;;4.32;;
67828;SDS011;54626;45.436;10.942;2022-10-29T08:38:07;8.38;;;3.80;;
67828;SDS011;54626;45.436;10.942;2022-10-29T08:49:30;8.70;;;4.40;;
67828;SDS011;54626;45.436;10.942;2022-10-29T08:52:10;9.90;;;4.72;;
67828;SDS011;54626;45.436;10.942;2022-10-29T08:54:40;10.07;;;4.07;;
67828;SDS011;54626;45.436;10.942;2022-10-29T08:57:54;7.40;;;3.20;;
67828;SDS011;54626;45.436;10.942;2022-10-29T09:00:30;7.15;;;3.20;;
67828;SDS011;54626;45.436;10.942;2022-10-29T09:02:59;8.43;;;3.33;;
67828;SDS011;54626;45.436;10.942;2022-10-29T09:05:35;12.50;;;3.88;;
67828;SDS011;54626;45.436;10.942;2022-10-29T09:10:56;7.85;;;3.97;;
67828;SDS011;54626;45.436;10.942;2022-10-29T09:13:41;9.57;;;3.90;;
67828;SDS011;54626;45.436;10.942;2022-10-29T09:22:37;11.02;;;3.95;;
67828;SDS011;54626;45.436;10.942;2022-10-29T09:25:17;11.65;;;3.17;;
67828;SDS011;54626;45.436;10.942;2022-10-29T09:27:52;15.50;;;6.18;;
67828;SDS011;54626;45.436;10.942;2022-10-29T09:30:31;5.78;;;2.50;;
67828;SDS011;54626;45.436;10.942;2022-10-29T09:33:09;10.35;;;3.42;;
67828;SDS011;54626;45.436;10.942;2022-10-29T09:35:51;7.10;;;3.00;;
67828;SDS011;54626;45.436;10.942;2022-10-29T09:38:29;6.88;;;2.85;;
67828;SDS011;54626;45.436;10.942;2022-10-29T09:41:00;9.23;;;3.72;;
67828;SDS011;54626;45.436;10.942;2022-10-29T09:52:11;14.63;;;6.05;;
67828;SDS011;54626;45.436;10.942;2022-10-29T09:54:47;15.18;;;5.07;;
67828;SDS011;54626;45.436;10.942;2022-10-29T09:57:23;10.65;;;4.63;;
67828;SDS011;54626;45.436;10.942;2022-10-29T09:59:55;10.98;;;4.32;;
67828;SDS011;54626;45.436;10.942;2022-10-29T10:05:05;8.13;;;3.53;;
67828;SDS011;54626;45.436;10.942;2022-10-29T10:08:02;10.48;;;4.47;;
67828;SDS011;54626;45.436;10.942;2022-10-29T10:10:50;11.25;;;5.30;;
67828;SDS011;54626;45.436;10.942;2022-10-29T10:13:20;11.23;;;4.55;;
67828;SDS011;54626;45.436;10.942;2022-10-29T10:15:56;12.15;;;4.88;;
67828;SDS011;54626;45.436;10.942;2022-10-29T10:18:25;12.48;;;4.63;;
67828;SDS011;54626;45.436;10.942;2022-10-29T10:20:59;20.90;;;8.32;;
67828;SDS011;54626;45.436;10.942;2022-10-29T10:26:25;16.40;;;7.40;;
67828;SDS011;54626;45.436;10.942;2022-10-29T10:31:46;14.20;;;6.53;;
67828;SDS011;54626;45.436;10.942;2022-10-29T10:34:16;14.35;;;5.35;;
67828;SDS011;54626;45.436;10.942;2022-10-29T10:39:24;16.42;;;6.95;;
67828;SDS011;54626;45.436;10.942;2022-10-29T10:41:54;24.90;;;9.50;;
67828;SDS011;54626;45.436;10.942;2022-10-29T10:44:22;19.00;;;7.05;;
67828;SDS011;54626;45.436;10.942;2022-10-29T10:46:50;19.80;;;7.88;;
67828;SDS011;54626;45.436;10.942;2022-10-29T10:49:24;12.75;;;6.00;;
67828;SDS011;54626;45.436;10.942;2022-10-29T10:51:53;20.02;;;8.68;;
67828;SDS011;54626;45.436;10.942;2022-10-29T10:54:26;19.08;;;8.07;;
67828;SDS011;54626;45.436;10.942;2022-10-29T10:57:03;25.55;;;9.60;;
67828;SDS011;54626;45.436;10.942;2022-10-29T11:02:49;18.95;;;6.45;;
67828;SDS011;54626;45.436;10.942;2022-10-29T11:05:23;15.32;;;6.38;;
67828;SDS011;54626;45.436;10.942;2022-10-29T11:10:29;17.15;;;6.28;;
67828;SDS011;54626;45.436;10.942;2022-10-29T11:13:02;15.50;;;6.72;;
67828;SDS011;54626;45.436;10.942;2022-10-29T11:15:48;18.20;;;7.28;;
67828;SDS011;54626;45.436;10.942;2022-10-29T11:21:23;17.95;;;7.50;;
67828;SDS011;54626;45.436;10.942;2022-10-29T11:23:58;18.15;;;6.90;;
67828;SDS011;54626;45.436;10.942;2022-10-29T11:26:54;17.02;;;7.53;;
67828;SDS011;54626;45.436;10.942;2022-10-29T11:34:55;15.70;;;6.20;;
67828;SDS011;54626;45.436;10.942;2022-10-29T11:40:22;10.93;;;4.47;;
67828;SDS011;54626;45.436;10.942;2022-10-29T11:42:49;13.40;;;4.57;;
67828;SDS011;54626;45.436;10.942;2022-10-29T11:45:22;15.20;;;5.38;;
67828;SDS011;54626;45.436;10.942;2022-10-29T11:48:02;16.88;;;7.30;;
67828;SDS011;54626;45.436;10.942;2022-10-29T11:51:25;15.30;;;4.97;;
67828;SDS011;54626;45.436;10.942;2022-10-29T12:04:47;12.75;;;4.85;;
67828;SDS011;54626;45.436;10.942;2022-10-29T12:19:05;9.65;;;4.18;;
67828;SDS011;54626;45.436;10.942;2022-10-29T12:21:49;12.48;;;4.75;;
67828;SDS011;54626;45.436;10.942;2022-10-29T12:24:28;12.13;;;4.13;;
67828;SDS011;54626;45.436;10.942;2022-10-29T12:29:53;11.23;;;4.18;;
67828;SDS011;54626;45.436;10.942;2022-10-29T12:32:30;11.88;;;4.65;;
67828;SDS011;54626;45.436;10.942;2022-10-29T12:40:42;6.88;;;3.35;;
67828;SDS011;54626;45.436;10.942;2022-10-29T12:43:21;10.88;;;3.72;;
67828;SDS011;54626;45.436;10.942;2022-10-29T12:51:47;7.55;;;2.20;;
67828;SDS011;54626;45.436;10.942;2022-10-29T12:59:38;8.23;;;2.42;;
67828;SDS011;54626;45.436;10.942;2022-10-29T13:07:36;6.70;;;2.30;;
67828;SDS011;54626;45.436;10.942;2022-10-29T13:13:03;8.48;;;2.97;;
67828;SDS011;54626;45.436;10.942;2022-10-29T13:16:04;5.60;;;2.70;;
67828;SDS011;54626;45.436;10.942;2022-10-29T13:18:47;6.60;;;2.38;;
67828;SDS011;54626;45.436;10.942;2022-10-29T13:24:21;7.80;;;3.20;;
67828;SDS011;54626;45.436;10.942;2022-10-29T13:26:52;5.40;;;2.42;;
67828;SDS011;54626;45.436;10.942;2022-10-29T13:29:43;5.18;;;2.33;;
67828;SDS011;54626;45.436;10.942;2022-10-29T13:32:31;9.65;;;2.72;;
67828;SDS011;54626;45.436;10.942;2022-10-29T13:35:00;5.78;;;2.47;;
67828;SDS011;54626;45.436;10.942;2022-10-29T13:37:36;5.43;;;2.20;;
67828;SDS011;54626;45.436;10.942;2022-10-29T13:45:27;7.43;;;2.20;;
67828;SDS011;54626;45.436;10.942;2022-10-29T13:48:04;4.07;;;1.73;;
67828;SDS011;54626;45.436;10.942;2022-10-29T13:50:36;5.60;;;2.25;;
67828;SDS011;54626;45.436;10.942;2022-10-29T13:53:05;6.38;;;2.38;;
67828;SDS011;54626;45.436;10.942;2022-10-29T13:55:38;5.25;;;1.73;;
67828;SDS011;54626;45.436;10.942;2022-10-29T14:00:41;4.65;;;2.00;;
67828;SDS011;54626;45.436;10.942;2022-10-29T14:03:14;6.32;;;1.90;;
67828;SDS011;54626;45.436;10.942;2022-10-29T14:05:48;5.35;;;1.77;;
67828;SDS011;54626;45.436;10.942;2022-10-29T14:11:13;5.50;;;2.13;;
67828;SDS011;54626;45.436;10.942;2022-10-29T14:13:46;2.58;;;1.48;;
67828;SDS011;54626;45.436;10.942;2022-10-29T14:16:15;5.63;;;1.73;;
67828;SDS011;54626;45.436;10.942;2022-10-29T14:18:48;3.38;;;1.40;;
67828;SDS011;54626;45.436;10.942;2022-10-29T14:21:26;5.20;;;1.45;;
67828;SDS011;54626;45.436;10.942;2022-10-29T14:26:25;4.45;;;1.38;;
67828;SDS011;54626;45.436;10.942;2022-10-29T14:28:53;5.55;;;1.75;;
67828;SDS011;54626;45.436;10.942;2022-10-29T14:31:21;4.88;;;1.50;;
67828;SDS011;54626;45.436;10.942;2022-10-29T14:33:54;8.73;;;1.80;;
67828;SDS011;54626;45.436;10.942;2022-10-29T14:36:30;2.75;;;1.63;;
67828;SDS011;54626;45.436;10.942;2022-10-29T14:41:29;4.50;;;1.83;;
67828;SDS011;54626;45.436;10.942;2022-10-29T14:46:28;2.30;;;1.20;;
67828;SDS011;54626;45.436;10.942;2022-10-29T14:49:00;3.83;;;1.52;;
67828;SDS011;54626;45.436;10.942;2022-10-29T14:51:38;2.33;;;1.08;;
67828;SDS011;54626;45.436;10.942;2022-10-29T14:54:06;3.33;;;1.45;;
67828;SDS011;54626;45.436;10.942;2022-10-29T14:56:41;3.40;;;1.77;;
67828;SDS011;54626;45.436;10.942;2022-10-29T14:59:09;4.70;;;2.10;;
67828;SDS011;54626;45.436;10.942;2022-10-29T15:01:51;5.25;;;1.90;;
67828;SDS011;54626;45.436;10.942;2022-10-29T15:04:31;7.47;;;1.50;;
67828;SDS011;54626;45.436;10.942;2022-10-29T15:09:40;3.20;;;1.50;;
67828;SDS011;54626;45.436;10.942;2022-10-29T15:12:17;5.05;;;1.60;;
67828;SDS011;54626;45.436;10.942;2022-10-29T15:14:51;4.50;;;1.55;;
67828;SDS011;54626;45.436;10.942;2022-10-29T15:20:03;4.93;;;1.80;;
67828;SDS011;54626;45.436;10.942;2022-10-29T15:22:35;4.18;;;2.03;;
67828;SDS011;54626;45.436;10.942;2022-10-29T15:25:06;5.28;;;2.03;;
67828;SDS011;54626;45.436;10.942;2022-10-29T15:27:37;5.07;;;1.95;;
67828;SDS011;54626;45.436;10.942;2022-10-29T15:30:05;3.58;;;1.48;;
67828;SDS011;54626;45.436;10.942;2022-10-29T15:32:32;5.13;;;1.98;;
67828;SDS011;54626;45.436;10.942;2022-10-29T15:34:59;5.10;;;1.88;;
67828;SDS011;54626;45.436;10.942;2022-10-29T15:39:59;7.43;;;2.30;;
67828;SDS011;54626;45.436;10.942;2022-10-29T15:42:35;4.70;;;2.00;;
67828;SDS011;54626;45.436;10.942;2022-10-29T15:47:32;5.20;;;2.05;;
67828;SDS011;54626;45.436;10.942;2022-10-29T15:50:06;8.02;;;2.63;;
67828;SDS011;54626;45.436;10.942;2022-10-29T15:52:37;7.38;;;2.35;;
67828;SDS011;54626;45.436;10.942;2022-10-29T15:55:12;6.47;;;2.70;;
67828;SDS011;54626;45.436;10.942;2022-10-29T15:57:51;6.35;;;2.38;;
67828;SDS011;54626;45.436;10.942;2022-10-29T16:00:20;4.40;;;2.00;;
67828;SDS011;54626;45.436;10.942;2022-10-29T16:02:48;5.43;;;2.33;;
67828;SDS011;54626;45.436;10.942;2022-10-29T16:05:16;9.35;;;3.03;;
67828;SDS011;54626;45.436;10.942;2022-10-29T16:07:44;8.20;;;3.10;;
67828;SDS011;54626;45.436;10.942;2022-10-29T16:10:16;5.45;;;2.58;;
67828;SDS011;54626;45.436;10.942;2022-10-29T16:12:45;7.18;;;2.83;;
67828;SDS011;54626;45.436;10.942;2022-10-29T16:15:15;6.50;;;2.53;;
67828;SDS011;54626;45.436;10.942;2022-10-29T16:17:46;6.10;;;2.42;;
67828;SDS011;54626;45.436;10.942;2022-10-29T16:20:14;6.55;;;2.92;;
67828;SDS011;54626;45.436;10.942;2022-10-29T16:22:43;11.82;;;3.30;;
67828;SDS011;54626;45.436;10.942;2022-10-29T16:25:26;6.60;;;2.70;;
67828;SDS011;54626;45.436;10.942;2022-10-29T16:27:54;8.18;;;2.78;;
67828;SDS011;54626;45.436;10.942;2022-10-29T16:30:22;6.43;;;2.33;;
67828;SDS011;54626;45.436;10.942;2022-10-29T16:32:49;5.47;;;2.75;;
67828;SDS011;54626;45.436;10.942;2022-10-29T16:35:18;8.27;;;2.63;;
67828;SDS011;54626;45.436;10.942;2022-10-29T16:37:47;5.30;;;2.05;;
67828;SDS011;54626;45.436;10.942;2022-10-29T16:40:14;6.72;;;2.28;;
67828;SDS011;54626;45.436;10.942;2022-10-29T16:42:42;7.70;;;2.85;;
67828;SDS011;54626;45.436;10.942;2022-10-29T16:45:14;4.78;;;2.65;;
67828;SDS011;54626;45.436;10.942;2022-10-29T16:47:43;6.05;;;2.60;;
67828;SDS011;54626;45.436;10.942;2022-10-29T16:50:13;11.50;;;3.95;;
67828;SDS011;54626;45.436;10.942;2022-10-29T16:52:41;4.03;;;1.73;;
67828;SDS011;54626;45.436;10.942;2022-10-29T16:55:09;9.68;;;3.08;;
67828;SDS011;54626;45.436;10.942;2022-10-29T16:57:36;9.18;;;3.22;;
67828;SDS011;54626;45.436;10.942;2022-10-29T17:00:03;7.75;;;2.80;;
67828;SDS011;54626;45.436;10.942;2022-10-29T17:02:31;7.63;;;2.92;;
67828;SDS011;54626;45.436;10.942;2022-10-29T17:04:58;5.28;;;2.67;;
67828;SDS011;54626;45.436;10.942;2022-10-29T17:07:25;8.20;;;2.92;;
67828;SDS011;54626;45.436;10.942;2022-10-29T17:09:56;5.20;;;2.85;;
67828;SDS011;54626;45.436;10.942;2022-10-29T17:12:25;7.53;;;3.95;;
67828;SDS011;54626;45.436;10.942;2022-10-29T17:14:52;10.23;;;4.40;;
67828;SDS011;54626;45.436;10.942;2022-10-29T17:17:18;6.97;;;2.80;;
67828;SDS011;54626;45.436;10.942;2022-10-29T17:19:45;8.57;;;3.83;;
67828;SDS011;54626;45.436;10.942;2022-10-29T17:22:24;10.10;;;3.25;;
67828;SDS011;54626;45.436;10.942;2022-10-29T17:24:50;6.95;;;3.42;;
67828;SDS011;54626;45.436;10.942;2022-10-29T17:27:17;4.15;;;1.88;;
67828;SDS011;54626;45.436;10.942;2022-10-29T17:29:47;7.68;;;3.53;;
67828;SDS011;54626;45.436;10.942;2022-10-29T17:32:13;7.38;;;3.75;;
67828;SDS011;54626;45.436;10.942;2022-10-29T17:34:40;7.18;;;2.65;;
67828;SDS011;54626;45.436;10.942;2022-10-29T17:37:09;6.40;;;2.75;;
67828;SDS011;54626;45.436;10.942;2022-10-29T17:39:37;6.47;;;2.85;;
67828;SDS011;54626;45.436;10.942;2022-10-29T17:42:05;9.48;;;3.25;;
67828;SDS011;54626;45.436;10.942;2022-10-29T17:44:33;11.88;;;3.58;;
67828;SDS011;54626;45.436;10.942;2022-10-29T17:47:01;9.82;;;3.22;;